14°C Temp
14°C Dewpoint
100% Humidity
Temperature
13 KM/H
8 MPH
7 KTS
100°
Due East

Wind Speed
Light Rain
Showers
Pressure 1002.92 (hPa) - 29.62 (in)
Visibility 3.1 (mi) - 5.0 (km)

Current Conditions
EGNJ
Location 20(mi)
Metar :EGNJ 300720Z 10007KT 4500 -RA BR SCT013 BKN019 OVC024 14/14 Q1003
Fri 30th July 08:20 am

Airport
  Metar Aviation API Data Provided by https://www.checkwx.com/ PHP scripts by weather34.com ©2021